Accueil
METAR-TAF:

METAR-TAF

Aéroports :

Coxyde, Belgique

Base aérienne de Coxyde

latitude: 51-05N, longitude: 002-39E, altitude: 4 m

Observation

Le bulletin a été fait il y a 31 minutes, à 09:55 UTC
Vent 15 kt de est
Température 1°C
Humidité 44%
Pression 1022 hPa
Visibilité 10 km ou plus

METAR: EBFN 240955Z AUTO 09015KT 9999 NCD 01/M10 Q1022 BLU

Heure: 11:26 (10:26 UTC)

Prévision

Le bulletin a été fait il y a 1 heure et 45 minutes, à 08:41 UTC
Prévision valable du 24 à 10 UTC au 24 à 19 UTC
Vent 12 kt de est
Visibilité 10 km ou plus
Quelques nuages à une hauteur de 20000 ft
Temporairement
du 24 à 11 UTC au 24 à 19 UTC
Vent 18 kt de est avec des rafales jusqu'à 30 kt

TAF: EBFN 240841Z 2410/2419 08012KT 9999 FEW200 TEMPO 2411/2419 09018G30KT

Observations et prévisions météorologiques de plus de 4000 aéroports (messages METAR et TAF).

Les stations disponibles sont représentées par des disques jaunes et rouges sur la carte.

Passer la souris dessus pour voir le nom de la station.

Cliquer dessus pour voir les observations et prévisions météorologiques.

Pour changer de carte: cliquez sur les boutons verts avec une croix noire pour zoomer, sur le bouton vert avec un tiret pour effectuer un zoom arrière, ou sur les flèches vertes pour les cartes adjacentes.


METAR-TAF: